sensor_id;sensor_type;location;lat;lon;timestamp;temperature;humidity
68139;DHT22;54940;50.842;4.410;2023-06-22T00:00:54;23.40;99.90
68139;DHT22;54940;50.842;4.410;2023-06-22T00:03:22;23.50;99.90
68139;DHT22;54940;50.842;4.410;2023-06-22T00:05:48;23.50;99.90
68139;DHT22;54940;50.842;4.410;2023-06-22T00:08:14;23.40;99.90
68139;DHT22;54940;50.842;4.410;2023-06-22T00:10:41;23.30;99.90
68139;DHT22;54940;50.842;4.410;2023-06-22T00:13:07;23.30;99.90
68139;DHT22;54940;50.842;4.410;2023-06-22T00:15:34;23.30;99.90
68139;DHT22;54940;50.842;4.410;2023-06-22T00:18:00;23.30;99.90
68139;DHT22;54940;50.842;4.410;2023-06-22T00:20:28;23.40;99.90
68139;DHT22;54940;50.842;4.410;2023-06-22T00:22:58;23.20;99.90
68139;DHT22;54940;50.842;4.410;2023-06-22T00:25:24;23.20;99.90
68139;DHT22;54940;50.842;4.410;2023-06-22T00:27:50;23.20;99.90
68139;DHT22;54940;50.842;4.410;2023-06-22T00:30:19;23.20;99.90
68139;DHT22;54940;50.842;4.410;2023-06-22T00:32:47;23.20;99.90
68139;DHT22;54940;50.842;4.410;2023-06-22T00:35:12;23.20;99.90
68139;DHT22;54940;50.842;4.410;2023-06-22T00:37:38;23.20;99.90
68139;DHT22;54940;50.842;4.410;2023-06-22T00:40:08;23.20;99.90
68139;DHT22;54940;50.842;4.410;2023-06-22T00:42:34;23.10;99.90
68139;DHT22;54940;50.842;4.410;2023-06-22T00:45:00;23.10;99.90
68139;DHT22;54940;50.842;4.410;2023-06-22T00:47:25;23.20;99.90
68139;DHT22;54940;50.842;4.410;2023-06-22T00:49:51;23.20;99.90
68139;DHT22;54940;50.842;4.410;2023-06-22T00:52:22;23.20;99.90
68139;DHT22;54940;50.842;4.410;2023-06-22T00:54:52;23.30;99.90
68139;DHT22;54940;50.842;4.410;2023-06-22T00:57:19;23.20;99.90
68139;DHT22;54940;50.842;4.410;2023-06-22T00:59:46;23.20;99.90
68139;DHT22;54940;50.842;4.410;2023-06-22T01:02:13;23.10;99.90
68139;DHT22;54940;50.842;4.410;2023-06-22T01:04:39;23.00;99.90
68139;DHT22;54940;50.842;4.410;2023-06-22T01:09:37;23.00;99.90
68139;DHT22;54940;50.842;4.410;2023-06-22T01:12:09;23.00;99.90
68139;DHT22;54940;50.842;4.410;2023-06-22T01:14:43;22.80;99.90
68139;DHT22;54940;50.842;4.410;2023-06-22T01:17:12;22.90;99.90
68139;DHT22;54940;50.842;4.410;2023-06-22T01:19:46;22.90;99.90
68139;DHT22;54940;50.842;4.410;2023-06-22T01:22:24;23.00;99.90
68139;DHT22;54940;50.842;4.410;2023-06-22T01:28:17;23.00;99.90
68139;DHT22;54940;50.842;4.410;2023-06-22T01:30:46;23.00;99.90
68139;DHT22;54940;50.842;4.410;2023-06-22T01:33:15;23.10;99.90
68139;DHT22;54940;50.842;4.410;2023-06-22T01:35:44;23.10;99.90
68139;DHT22;54940;50.842;4.410;2023-06-22T01:38:10;23.00;99.90
68139;DHT22;54940;50.842;4.410;2023-06-22T01:40:36;23.00;99.90
68139;DHT22;54940;50.842;4.410;2023-06-22T01:43:03;22.90;99.90
68139;DHT22;54940;50.842;4.410;2023-06-22T01:45:29;22.90;99.90
68139;DHT22;54940;50.842;4.410;2023-06-22T01:47:55;22.80;99.90
68139;DHT22;54940;50.842;4.410;2023-06-22T01:50:21;22.60;99.90
68139;DHT22;54940;50.842;4.410;2023-06-22T01:52:47;22.70;99.90
68139;DHT22;54940;50.842;4.410;2023-06-22T01:55:13;22.70;99.90
68139;DHT22;54940;50.842;4.410;2023-06-22T01:57:39;22.70;99.90
68139;DHT22;54940;50.842;4.410;2023-06-22T02:00:09;22.70;99.90
68139;DHT22;54940;50.842;4.410;2023-06-22T02:02:59;22.70;99.90
68139;DHT22;54940;50.842;4.410;2023-06-22T02:05:31;22.70;99.90
68139;DHT22;54940;50.842;4.410;2023-06-22T02:10:55;22.70;99.90
68139;DHT22;54940;50.842;4.410;2023-06-22T02:13:24;22.70;99.90
68139;DHT22;54940;50.842;4.410;2023-06-22T02:15:50;22.70;99.90
68139;DHT22;54940;50.842;4.410;2023-06-22T02:18:16;22.70;99.90
68139;DHT22;54940;50.842;4.410;2023-06-22T02:20:42;22.70;99.90
68139;DHT22;54940;50.842;4.410;2023-06-22T02:23:08;22.50;99.90
68139;DHT22;54940;50.842;4.410;2023-06-22T02:25:34;22.50;99.90
68139;DHT22;54940;50.842;4.410;2023-06-22T02:28:00;22.50;99.90
68139;DHT22;54940;50.842;4.410;2023-06-22T02:30:28;22.50;99.90
68139;DHT22;54940;50.842;4.410;2023-06-22T02:32:54;22.50;99.90
68139;DHT22;54940;50.842;4.410;2023-06-22T02:35:28;22.30;99.90
68139;DHT22;54940;50.842;4.410;2023-06-22T02:38:00;22.30;99.90
68139;DHT22;54940;50.842;4.410;2023-06-22T02:40:29;22.30;99.90
68139;DHT22;54940;50.842;4.410;2023-06-22T02:42:55;22.30;99.90
68139;DHT22;54940;50.842;4.410;2023-06-22T02:45:23;22.30;99.90
68139;DHT22;54940;50.842;4.410;2023-06-22T02:47:51;22.20;99.90
68139;DHT22;54940;50.842;4.410;2023-06-22T02:50:17;22.20;99.90
68139;DHT22;54940;50.842;4.410;2023-06-22T02:52:42;22.10;99.90
68139;DHT22;54940;50.842;4.410;2023-06-22T02:55:08;22.10;99.90
68139;DHT22;54940;50.842;4.410;2023-06-22T02:57:34;22.10;99.90
68139;DHT22;54940;50.842;4.410;2023-06-22T03:00:01;22.10;99.90
68139;DHT22;54940;50.842;4.410;2023-06-22T03:02:27;22.00;99.90
68139;DHT22;54940;50.842;4.410;2023-06-22T03:04:53;21.90;99.90
68139;DHT22;54940;50.842;4.410;2023-06-22T03:07:19;21.90;99.90
68139;DHT22;54940;50.842;4.410;2023-06-22T03:09:45;21.90;99.90
68139;DHT22;54940;50.842;4.410;2023-06-22T03:12:11;22.00;99.90
68139;DHT22;54940;50.842;4.410;2023-06-22T03:14:37;21.90;99.90
68139;DHT22;54940;50.842;4.410;2023-06-22T03:17:04;22.00;99.90
68139;DHT22;54940;50.842;4.410;2023-06-22T03:19:30;22.00;99.90
68139;DHT22;54940;50.842;4.410;2023-06-22T03:21:59;22.00;99.90
68139;DHT22;54940;50.842;4.410;2023-06-22T03:24:24;22.00;99.90
68139;DHT22;54940;50.842;4.410;2023-06-22T03:26:50;22.00;99.90
68139;DHT22;54940;50.842;4.410;2023-06-22T03:29:16;22.00;99.90
68139;DHT22;54940;50.842;4.410;2023-06-22T03:31:43;22.00;99.90
68139;DHT22;54940;50.842;4.410;2023-06-22T03:34:09;22.00;99.90
68139;DHT22;54940;50.842;4.410;2023-06-22T03:36:35;21.90;99.90
68139;DHT22;54940;50.842;4.410;2023-06-22T03:39:01;22.00;99.90
68139;DHT22;54940;50.842;4.410;2023-06-22T03:41:26;22.00;99.90
68139;DHT22;54940;50.842;4.410;2023-06-22T03:43:52;21.90;99.90
68139;DHT22;54940;50.842;4.410;2023-06-22T03:46:18;21.90;99.90
68139;DHT22;54940;50.842;4.410;2023-06-22T03:48:45;21.90;99.90
68139;DHT22;54940;50.842;4.410;2023-06-22T03:51:10;21.90;99.90
68139;DHT22;54940;50.842;4.410;2023-06-22T03:53:36;22.00;99.90
68139;DHT22;54940;50.842;4.410;2023-06-22T03:56:02;22.00;99.90
68139;DHT22;54940;50.842;4.410;2023-06-22T03:58:27;21.90;99.90
68139;DHT22;54940;50.842;4.410;2023-06-22T04:00:58;22.00;99.90
68139;DHT22;54940;50.842;4.410;2023-06-22T04:03:25;21.90;99.90
68139;DHT22;54940;50.842;4.410;2023-06-22T04:05:53;22.00;99.90
68139;DHT22;54940;50.842;4.410;2023-06-22T04:08:21;22.00;99.90
68139;DHT22;54940;50.842;4.410;2023-06-22T04:10:46;22.00;99.90
68139;DHT22;54940;50.842;4.410;2023-06-22T04:13:12;22.00;99.90
68139;DHT22;54940;50.842;4.410;2023-06-22T04:15:38;21.90;99.90
68139;DHT22;54940;50.842;4.410;2023-06-22T04:18:03;21.90;99.90
68139;DHT22;54940;50.842;4.410;2023-06-22T04:20:31;21.80;99.90
68139;DHT22;54940;50.842;4.410;2023-06-22T04:22:56;21.80;99.90
68139;DHT22;54940;50.842;4.410;2023-06-22T04:25:22;21.80;99.90
68139;DHT22;54940;50.842;4.410;2023-06-22T04:27:48;21.60;99.90
68139;DHT22;54940;50.842;4.410;2023-06-22T04:30:14;21.50;99.90
68139;DHT22;54940;50.842;4.410;2023-06-22T04:32:43;21.50;99.90
68139;DHT22;54940;50.842;4.410;2023-06-22T04:35:10;21.50;99.90
68139;DHT22;54940;50.842;4.410;2023-06-22T04:37:35;21.60;99.90
68139;DHT22;54940;50.842;4.410;2023-06-22T04:40:01;21.70;99.90
68139;DHT22;54940;50.842;4.410;2023-06-22T04:42:28;21.80;99.90
68139;DHT22;54940;50.842;4.410;2023-06-22T04:44:54;21.80;99.90
68139;DHT22;54940;50.842;4.410;2023-06-22T04:47:20;21.90;99.90
68139;DHT22;54940;50.842;4.410;2023-06-22T04:49:46;21.80;99.90
68139;DHT22;54940;50.842;4.410;2023-06-22T04:52:12;21.70;99.90
68139;DHT22;54940;50.842;4.410;2023-06-22T04:54:39;21.50;99.90
68139;DHT22;54940;50.842;4.410;2023-06-22T04:57:13;21.30;99.90
68139;DHT22;54940;50.842;4.410;2023-06-22T04:59:40;21.10;99.90
68139;DHT22;54940;50.842;4.410;2023-06-22T05:02:07;20.90;99.90
68139;DHT22;54940;50.842;4.410;2023-06-22T05:04:35;21.00;99.90
68139;DHT22;54940;50.842;4.410;2023-06-22T05:07:04;21.20;99.90
68139;DHT22;54940;50.842;4.410;2023-06-22T05:09:30;21.30;99.90
68139;DHT22;54940;50.842;4.410;2023-06-22T05:11:56;21.50;99.90
68139;DHT22;54940;50.842;4.410;2023-06-22T05:14:22;21.60;99.90
68139;DHT22;54940;50.842;4.410;2023-06-22T05:16:49;21.60;99.90
68139;DHT22;54940;50.842;4.410;2023-06-22T05:19:17;21.60;99.90
68139;DHT22;54940;50.842;4.410;2023-06-22T05:21:42;21.70;99.90
68139;DHT22;54940;50.842;4.410;2023-06-22T05:24:08;21.70;99.90
68139;DHT22;54940;50.842;4.410;2023-06-22T05:26:34;21.80;99.90
68139;DHT22;54940;50.842;4.410;2023-06-22T05:29:01;21.80;99.90
68139;DHT22;54940;50.842;4.410;2023-06-22T05:31:27;21.80;99.90
68139;DHT22;54940;50.842;4.410;2023-06-22T05:33:54;21.90;99.90
68139;DHT22;54940;50.842;4.410;2023-06-22T05:36:23;21.90;99.90
68139;DHT22;54940;50.842;4.410;2023-06-22T05:38:52;21.90;99.90
68139;DHT22;54940;50.842;4.410;2023-06-22T05:41:18;21.80;99.90
68139;DHT22;54940;50.842;4.410;2023-06-22T05:43:46;21.80;99.90
68139;DHT22;54940;50.842;4.410;2023-06-22T05:46:12;21.80;99.90
68139;DHT22;54940;50.842;4.410;2023-06-22T05:48:38;21.80;99.90
68139;DHT22;54940;50.842;4.410;2023-06-22T05:51:03;21.70;99.90
68139;DHT22;54940;50.842;4.410;2023-06-22T05:53:29;21.70;99.90
68139;DHT22;54940;50.842;4.410;2023-06-22T05:55:54;21.70;99.90
68139;DHT22;54940;50.842;4.410;2023-06-22T05:58:20;21.70;99.90
68139;DHT22;54940;50.842;4.410;2023-06-22T06:00:46;21.60;99.90
68139;DHT22;54940;50.842;4.410;2023-06-22T06:03:12;21.60;99.90
68139;DHT22;54940;50.842;4.410;2023-06-22T06:05:38;21.60;99.90
68139;DHT22;54940;50.842;4.410;2023-06-22T06:08:05;21.60;99.90
68139;DHT22;54940;50.842;4.410;2023-06-22T06:10:32;21.70;99.90
68139;DHT22;54940;50.842;4.410;2023-06-22T06:12:58;21.60;99.90
68139;DHT22;54940;50.842;4.410;2023-06-22T06:15:24;21.70;99.90
68139;DHT22;54940;50.842;4.410;2023-06-22T06:17:52;21.70;99.90
68139;DHT22;54940;50.842;4.410;2023-06-22T06:20:19;21.80;99.90
68139;DHT22;54940;50.842;4.410;2023-06-22T06:22:48;21.80;99.90
68139;DHT22;54940;50.842;4.410;2023-06-22T06:25:13;21.70;99.90
68139;DHT22;54940;50.842;4.410;2023-06-22T06:27:43;21.80;99.90
68139;DHT22;54940;50.842;4.410;2023-06-22T06:30:10;21.80;99.90
68139;DHT22;54940;50.842;4.410;2023-06-22T06:32:36;21.80;99.90
68139;DHT22;54940;50.842;4.410;2023-06-22T06:35:04;21.80;99.90
68139;DHT22;54940;50.842;4.410;2023-06-22T06:37:30;21.90;99.90
68139;DHT22;54940;50.842;4.410;2023-06-22T06:39:56;21.90;99.90
68139;DHT22;54940;50.842;4.410;2023-06-22T06:42:21;21.90;99.90
68139;DHT22;54940;50.842;4.410;2023-06-22T06:44:49;21.90;99.90
68139;DHT22;54940;50.842;4.410;2023-06-22T06:47:15;22.00;99.90
68139;DHT22;54940;50.842;4.410;2023-06-22T06:49:42;21.90;99.90
68139;DHT22;54940;50.842;4.410;2023-06-22T06:52:10;22.00;99.90
68139;DHT22;54940;50.842;4.410;2023-06-22T06:54:35;21.90;99.90
68139;DHT22;54940;50.842;4.410;2023-06-22T06:57:01;21.90;99.90
68139;DHT22;54940;50.842;4.410;2023-06-22T06:59:28;22.00;99.90
68139;DHT22;54940;50.842;4.410;2023-06-22T07:01:55;21.90;99.90
68139;DHT22;54940;50.842;4.410;2023-06-22T07:04:21;21.90;99.90
68139;DHT22;54940;50.842;4.410;2023-06-22T07:06:47;21.80;99.90
68139;DHT22;54940;50.842;4.410;2023-06-22T07:09:12;21.80;99.90
68139;DHT22;54940;50.842;4.410;2023-06-22T07:11:38;21.60;99.90
68139;DHT22;54940;50.842;4.410;2023-06-22T07:14:03;21.50;99.90
68139;DHT22;54940;50.842;4.410;2023-06-22T07:16:31;21.50;99.90
68139;DHT22;54940;50.842;4.410;2023-06-22T07:18:58;21.50;99.90
68139;DHT22;54940;50.842;4.410;2023-06-22T07:21:26;21.50;99.90
68139;DHT22;54940;50.842;4.410;2023-06-22T07:23:51;21.40;99.90
68139;DHT22;54940;50.842;4.410;2023-06-22T07:26:17;21.60;99.90
68139;DHT22;54940;50.842;4.410;2023-06-22T07:28:47;21.70;99.90
68139;DHT22;54940;50.842;4.410;2023-06-22T07:31:12;21.80;99.90
68139;DHT22;54940;50.842;4.410;2023-06-22T07:33:38;22.00;99.90
68139;DHT22;54940;50.842;4.410;2023-06-22T07:36:04;22.00;99.90
68139;DHT22;54940;50.842;4.410;2023-06-22T07:38:33;21.80;99.90
68139;DHT22;54940;50.842;4.410;2023-06-22T07:40:59;21.80;99.90
68139;DHT22;54940;50.842;4.410;2023-06-22T07:43:25;21.70;99.90
68139;DHT22;54940;50.842;4.410;2023-06-22T07:45:51;21.60;99.90
68139;DHT22;54940;50.842;4.410;2023-06-22T07:48:22;21.50;99.90
68139;DHT22;54940;50.842;4.410;2023-06-22T07:50:48;21.50;99.90
68139;DHT22;54940;50.842;4.410;2023-06-22T07:53:14;21.50;99.90
68139;DHT22;54940;50.842;4.410;2023-06-22T07:55:40;21.50;99.90
68139;DHT22;54940;50.842;4.410;2023-06-22T07:58:05;21.50;99.90
68139;DHT22;54940;50.842;4.410;2023-06-22T08:00:31;21.50;99.90
68139;DHT22;54940;50.842;4.410;2023-06-22T08:02:58;21.60;99.90
68139;DHT22;54940;50.842;4.410;2023-06-22T08:05:24;21.50;99.90
68139;DHT22;54940;50.842;4.410;2023-06-22T08:07:50;21.50;99.90
68139;DHT22;54940;50.842;4.410;2023-06-22T08:10:16;21.50;99.90
68139;DHT22;54940;50.842;4.410;2023-06-22T08:12:41;21.60;99.90
68139;DHT22;54940;50.842;4.410;2023-06-22T08:15:08;21.60;99.90
68139;DHT22;54940;50.842;4.410;2023-06-22T08:17:36;21.70;99.90
68139;DHT22;54940;50.842;4.410;2023-06-22T08:20:01;21.70;99.90
68139;DHT22;54940;50.842;4.410;2023-06-22T08:22:31;21.70;99.90
68139;DHT22;54940;50.842;4.410;2023-06-22T08:24:58;21.80;99.90
68139;DHT22;54940;50.842;4.410;2023-06-22T08:27:24;21.80;99.90
68139;DHT22;54940;50.842;4.410;2023-06-22T08:29:52;21.90;99.90
68139;DHT22;54940;50.842;4.410;2023-06-22T08:32:23;21.80;99.90
68139;DHT22;54940;50.842;4.410;2023-06-22T08:34:49;21.70;99.90
68139;DHT22;54940;50.842;4.410;2023-06-22T08:37:15;21.60;99.90
68139;DHT22;54940;50.842;4.410;2023-06-22T08:39:41;21.50;99.90
68139;DHT22;54940;50.842;4.410;2023-06-22T08:42:07;21.60;99.90
68139;DHT22;54940;50.842;4.410;2023-06-22T08:44:32;21.60;99.90
68139;DHT22;54940;50.842;4.410;2023-06-22T08:46:58;21.60;99.90
68139;DHT22;54940;50.842;4.410;2023-06-22T08:49:23;21.60;99.90
68139;DHT22;54940;50.842;4.410;2023-06-22T08:51:51;21.60;99.90
68139;DHT22;54940;50.842;4.410;2023-06-22T08:54:19;21.60;99.90
68139;DHT22;54940;50.842;4.410;2023-06-22T08:56:44;21.60;99.90
68139;DHT22;54940;50.842;4.410;2023-06-22T08:59:10;21.60;99.90
68139;DHT22;54940;50.842;4.410;2023-06-22T09:01:38;21.70;99.90
68139;DHT22;54940;50.842;4.410;2023-06-22T09:04:04;21.70;99.90
68139;DHT22;54940;50.842;4.410;2023-06-22T09:06:31;21.80;99.90
68139;DHT22;54940;50.842;4.410;2023-06-22T09:08:59;21.80;99.90
68139;DHT22;54940;50.842;4.410;2023-06-22T09:11:25;21.80;99.90
68139;DHT22;54940;50.842;4.410;2023-06-22T09:13:51;21.80;99.90
68139;DHT22;54940;50.842;4.410;2023-06-22T09:16:18;21.80;99.90
68139;DHT22;54940;50.842;4.410;2023-06-22T09:18:47;21.80;99.90
68139;DHT22;54940;50.842;4.410;2023-06-22T09:21:13;21.80;99.90
68139;DHT22;54940;50.842;4.410;2023-06-22T09:23:39;21.90;99.90
68139;DHT22;54940;50.842;4.410;2023-06-22T09:26:05;21.70;99.90
68139;DHT22;54940;50.842;4.410;2023-06-22T09:28:31;21.60;99.90
68139;DHT22;54940;50.842;4.410;2023-06-22T09:30:56;21.60;99.90
68139;DHT22;54940;50.842;4.410;2023-06-22T09:33:24;21.60;99.90
68139;DHT22;54940;50.842;4.410;2023-06-22T09:35:50;21.60;99.90
68139;DHT22;54940;50.842;4.410;2023-06-22T09:38:16;21.70;99.90
68139;DHT22;54940;50.842;4.410;2023-06-22T09:40:42;21.60;99.90
68139;DHT22;54940;50.842;4.410;2023-06-22T09:43:08;21.60;99.90
68139;DHT22;54940;50.842;4.410;2023-06-22T09:45:34;21.60;99.90
68139;DHT22;54940;50.842;4.410;2023-06-22T09:47:59;21.60;99.90
68139;DHT22;54940;50.842;4.410;2023-06-22T09:50:25;21.50;99.90
68139;DHT22;54940;50.842;4.410;2023-06-22T09:52:50;21.40;99.90
68139;DHT22;54940;50.842;4.410;2023-06-22T09:55:20;21.00;99.90
68139;DHT22;54940;50.842;4.410;2023-06-22T09:57:46;21.00;99.90
68139;DHT22;54940;50.842;4.410;2023-06-22T10:00:12;20.90;99.90
68139;DHT22;54940;50.842;4.410;2023-06-22T10:02:40;20.80;99.90
68139;DHT22;54940;50.842;4.410;2023-06-22T10:05:06;20.80;99.90
68139;DHT22;54940;50.842;4.410;2023-06-22T10:07:33;20.80;99.90
68139;DHT22;54940;50.842;4.410;2023-06-22T10:09:58;20.70;99.90
68139;DHT22;54940;50.842;4.410;2023-06-22T10:12:25;20.70;99.90
68139;DHT22;54940;50.842;4.410;2023-06-22T10:14:51;20.70;99.90
68139;DHT22;54940;50.842;4.410;2023-06-22T10:17:16;20.70;99.90
68139;DHT22;54940;50.842;4.410;2023-06-22T10:19:42;20.80;99.90
68139;DHT22;54940;50.842;4.410;2023-06-22T10:22:07;20.70;99.90
68139;DHT22;54940;50.842;4.410;2023-06-22T10:24:33;20.70;99.90
68139;DHT22;54940;50.842;4.410;2023-06-22T10:26:59;20.80;99.90
68139;DHT22;54940;50.842;4.410;2023-06-22T10:29:24;20.70;99.90
68139;DHT22;54940;50.842;4.410;2023-06-22T10:31:50;20.40;99.90
68139;DHT22;54940;50.842;4.410;2023-06-22T10:34:15;20.40;99.90
68139;DHT22;54940;50.842;4.410;2023-06-22T10:36:41;20.30;99.90
68139;DHT22;54940;50.842;4.410;2023-06-22T10:39:07;20.20;99.90
68139;DHT22;54940;50.842;4.410;2023-06-22T10:41:32;20.10;99.90
68139;DHT22;54940;50.842;4.410;2023-06-22T10:43:58;20.20;99.90
68139;DHT22;54940;50.842;4.410;2023-06-22T10:46:24;20.20;99.90
68139;DHT22;54940;50.842;4.410;2023-06-22T10:48:51;20.20;99.90
68139;DHT22;54940;50.842;4.410;2023-06-22T10:51:19;20.10;99.90
68139;DHT22;54940;50.842;4.410;2023-06-22T10:53:45;20.00;99.90
68139;DHT22;54940;50.842;4.410;2023-06-22T10:56:10;20.00;99.90
68139;DHT22;54940;50.842;4.410;2023-06-22T10:58:38;19.90;99.90
68139;DHT22;54940;50.842;4.410;2023-06-22T11:01:04;19.80;99.90
68139;DHT22;54940;50.842;4.410;2023-06-22T11:03:30;19.80;99.90
68139;DHT22;54940;50.842;4.410;2023-06-22T11:05:55;19.80;99.90
68139;DHT22;54940;50.842;4.410;2023-06-22T11:08:21;19.90;99.90
68139;DHT22;54940;50.842;4.410;2023-06-22T11:10:50;19.90;99.90
68139;DHT22;54940;50.842;4.410;2023-06-22T11:13:19;20.00;99.90
68139;DHT22;54940;50.842;4.410;2023-06-22T11:15:45;19.90;99.90
68139;DHT22;54940;50.842;4.410;2023-06-22T11:18:10;20.00;99.90
68139;DHT22;54940;50.842;4.410;2023-06-22T11:20:36;20.00;99.90
68139;DHT22;54940;50.842;4.410;2023-06-22T11:23:06;20.00;99.90
68139;DHT22;54940;50.842;4.410;2023-06-22T11:25:32;20.10;99.90
68139;DHT22;54940;50.842;4.410;2023-06-22T11:28:04;20.00;99.90
68139;DHT22;54940;50.842;4.410;2023-06-22T11:30:30;20.00;99.90
68139;DHT22;54940;50.842;4.410;2023-06-22T11:32:59;20.10;99.90
68139;DHT22;54940;50.842;4.410;2023-06-22T11:35:25;20.10;99.90
68139;DHT22;54940;50.842;4.410;2023-06-22T11:37:50;20.00;99.90
68139;DHT22;54940;50.842;4.410;2023-06-22T11:40:16;20.00;99.90
68139;DHT22;54940;50.842;4.410;2023-06-22T11:42:43;20.20;99.90
68139;DHT22;54940;50.842;4.410;2023-06-22T11:45:09;20.20;99.90
68139;DHT22;54940;50.842;4.410;2023-06-22T11:47:35;20.20;99.90
68139;DHT22;54940;50.842;4.410;2023-06-22T11:50:02;20.10;99.90
68139;DHT22;54940;50.842;4.410;2023-06-22T11:52:28;20.20;99.90
68139;DHT22;54940;50.842;4.410;2023-06-22T11:54:53;20.10;99.90
68139;DHT22;54940;50.842;4.410;2023-06-22T11:57:19;20.10;99.90
68139;DHT22;54940;50.842;4.410;2023-06-22T11:59:45;20.20;99.90
68139;DHT22;54940;50.842;4.410;2023-06-22T12:02:10;20.20;99.90
68139;DHT22;54940;50.842;4.410;2023-06-22T12:04:36;20.20;99.90
68139;DHT22;54940;50.842;4.410;2023-06-22T12:07:02;20.20;99.90
68139;DHT22;54940;50.842;4.410;2023-06-22T12:09:28;20.10;99.90
68139;DHT22;54940;50.842;4.410;2023-06-22T12:11:53;20.10;99.90
68139;DHT22;54940;50.842;4.410;2023-06-22T12:14:19;20.00;99.90
68139;DHT22;54940;50.842;4.410;2023-06-22T12:16:44;20.00;99.90
68139;DHT22;54940;50.842;4.410;2023-06-22T12:19:11;20.00;99.90
68139;DHT22;54940;50.842;4.410;2023-06-22T12:21:37;20.00;99.90
68139;DHT22;54940;50.842;4.410;2023-06-22T12:24:04;20.10;99.90
68139;DHT22;54940;50.842;4.410;2023-06-22T12:26:30;20.10;99.90
68139;DHT22;54940;50.842;4.410;2023-06-22T12:28:55;20.00;99.90
68139;DHT22;54940;50.842;4.410;2023-06-22T12:31:21;20.00;99.90
68139;DHT22;54940;50.842;4.410;2023-06-22T12:33:50;20.00;99.90
68139;DHT22;54940;50.842;4.410;2023-06-22T12:36:15;19.90;99.90
68139;DHT22;54940;50.842;4.410;2023-06-22T12:38:41;19.80;99.90
68139;DHT22;54940;50.842;4.410;2023-06-22T12:41:07;19.80;99.90
68139;DHT22;54940;50.842;4.410;2023-06-22T12:43:33;19.80;99.90
68139;DHT22;54940;50.842;4.410;2023-06-22T12:45:58;19.80;99.90
68139;DHT22;54940;50.842;4.410;2023-06-22T12:48:26;19.90;99.90
68139;DHT22;54940;50.842;4.410;2023-06-22T12:50:52;19.90;99.90
68139;DHT22;54940;50.842;4.410;2023-06-22T12:53:18;19.90;99.90
68139;DHT22;54940;50.842;4.410;2023-06-22T12:55:44;19.90;99.90
68139;DHT22;54940;50.842;4.410;2023-06-22T12:58:09;19.90;99.90
68139;DHT22;54940;50.842;4.410;2023-06-22T13:00:35;20.00;99.90
68139;DHT22;54940;50.842;4.410;2023-06-22T13:03:03;19.90;99.90
68139;DHT22;54940;50.842;4.410;2023-06-22T13:05:29;20.00;99.90
68139;DHT22;54940;50.842;4.410;2023-06-22T13:07:56;19.90;99.90
68139;DHT22;54940;50.842;4.410;2023-06-22T13:10:21;19.80;99.90
68139;DHT22;54940;50.842;4.410;2023-06-22T13:12:47;19.90;99.90
68139;DHT22;54940;50.842;4.410;2023-06-22T13:15:12;19.80;99.90
68139;DHT22;54940;50.842;4.410;2023-06-22T13:17:38;19.80;99.90
68139;DHT22;54940;50.842;4.410;2023-06-22T13:20:05;19.90;99.90
68139;DHT22;54940;50.842;4.410;2023-06-22T13:22:33;19.90;99.90
68139;DHT22;54940;50.842;4.410;2023-06-22T13:25:05;19.90;99.90
68139;DHT22;54940;50.842;4.410;2023-06-22T13:27:31;19.90;99.90
68139;DHT22;54940;50.842;4.410;2023-06-22T13:29:56;19.90;99.90
68139;DHT22;54940;50.842;4.410;2023-06-22T13:32:22;20.00;99.90
68139;DHT22;54940;50.842;4.410;2023-06-22T13:34:48;19.80;99.90
68139;DHT22;54940;50.842;4.410;2023-06-22T13:37:13;19.80;99.90
68139;DHT22;54940;50.842;4.410;2023-06-22T13:39:39;19.80;99.90
68139;DHT22;54940;50.842;4.410;2023-06-22T13:42:05;19.80;99.90
68139;DHT22;54940;50.842;4.410;2023-06-22T13:44:31;19.80;99.90
68139;DHT22;54940;50.842;4.410;2023-06-22T13:46:56;19.70;99.90
68139;DHT22;54940;50.842;4.410;2023-06-22T13:49:22;19.80;99.90
68139;DHT22;54940;50.842;4.410;2023-06-22T13:51:48;19.80;99.90
68139;DHT22;54940;50.842;4.410;2023-06-22T13:54:14;19.70;99.90
68139;DHT22;54940;50.842;4.410;2023-06-22T13:56:40;19.70;99.90
68139;DHT22;54940;50.842;4.410;2023-06-22T13:59:06;19.60;99.90
68139;DHT22;54940;50.842;4.410;2023-06-22T14:01:38;19.50;99.90
68139;DHT22;54940;50.842;4.410;2023-06-22T14:04:05;19.60;99.90
68139;DHT22;54940;50.842;4.410;2023-06-22T14:06:31;19.60;99.90
68139;DHT22;54940;50.842;4.410;2023-06-22T14:08:56;19.60;99.90
68139;DHT22;54940;50.842;4.410;2023-06-22T14:11:22;19.60;99.90
68139;DHT22;54940;50.842;4.410;2023-06-22T14:13:48;19.50;99.90
68139;DHT22;54940;50.842;4.410;2023-06-22T14:16:13;19.50;99.90
68139;DHT22;54940;50.842;4.410;2023-06-22T14:18:39;19.50;99.90
68139;DHT22;54940;50.842;4.410;2023-06-22T14:21:07;19.50;99.90
68139;DHT22;54940;50.842;4.410;2023-06-22T14:23:33;19.60;99.90
68139;DHT22;54940;50.842;4.410;2023-06-22T14:25:59;19.60;99.90
68139;DHT22;54940;50.842;4.410;2023-06-22T14:28:25;19.60;99.90
68139;DHT22;54940;50.842;4.410;2023-06-22T14:30:50;19.70;99.90
68139;DHT22;54940;50.842;4.410;2023-06-22T14:33:16;19.70;99.90
68139;DHT22;54940;50.842;4.410;2023-06-22T14:35:44;19.60;99.90
68139;DHT22;54940;50.842;4.410;2023-06-22T14:38:09;19.70;99.90
68139;DHT22;54940;50.842;4.410;2023-06-22T14:40:35;19.60;99.90
68139;DHT22;54940;50.842;4.410;2023-06-22T14:43:01;19.60;99.90
68139;DHT22;54940;50.842;4.410;2023-06-22T14:45:26;19.40;99.90
68139;DHT22;54940;50.842;4.410;2023-06-22T14:47:52;19.30;99.90
68139;DHT22;54940;50.842;4.410;2023-06-22T14:50:18;19.30;99.90
68139;DHT22;54940;50.842;4.410;2023-06-22T14:52:43;19.40;99.90
68139;DHT22;54940;50.842;4.410;2023-06-22T14:55:12;19.40;99.90
68139;DHT22;54940;50.842;4.410;2023-06-22T14:57:37;19.40;99.90
68139;DHT22;54940;50.842;4.410;2023-06-22T15:00:03;19.50;99.90
68139;DHT22;54940;50.842;4.410;2023-06-22T15:02:33;19.50;99.90
68139;DHT22;54940;50.842;4.410;2023-06-22T15:04:59;19.60;99.90
68139;DHT22;54940;50.842;4.410;2023-06-22T15:07:24;19.60;99.90
68139;DHT22;54940;50.842;4.410;2023-06-22T15:09:50;19.60;99.90
68139;DHT22;54940;50.842;4.410;2023-06-22T15:12:16;19.60;99.90
68139;DHT22;54940;50.842;4.410;2023-06-22T15:14:44;19.70;99.90
68139;DHT22;54940;50.842;4.410;2023-06-22T15:17:09;19.70;99.90
68139;DHT22;54940;50.842;4.410;2023-06-22T15:19:36;19.70;99.90
68139;DHT22;54940;50.842;4.410;2023-06-22T15:22:05;19.70;99.90
68139;DHT22;54940;50.842;4.410;2023-06-22T15:24:34;19.70;99.90
68139;DHT22;54940;50.842;4.410;2023-06-22T15:27:02;19.70;99.90
68139;DHT22;54940;50.842;4.410;2023-06-22T15:29:28;19.70;99.90
68139;DHT22;54940;50.842;4.410;2023-06-22T15:31:59;19.70;99.90
68139;DHT22;54940;50.842;4.410;2023-06-22T15:34:25;19.70;99.90